createdAt,value
2019-03-24T00:01:26.822Z,96.45
2019-03-24T00:04:35.309Z,97.85
2019-03-24T00:07:43.475Z,97.87
2019-03-24T00:10:51.818Z,97.83
2019-03-24T00:14:00.161Z,97.40
2019-03-24T00:17:08.359Z,96.26
2019-03-24T00:20:16.583Z,97.66
2019-03-24T00:23:24.992Z,100.00
2019-03-24T00:26:33.182Z,99.41
2019-03-24T00:29:41.847Z,99.04
2019-03-24T00:32:50.241Z,98.92
2019-03-24T00:35:58.541Z,99.03
2019-03-24T00:39:07.325Z,99.46
2019-03-24T00:42:15.839Z,99.93
2019-03-24T00:45:24.270Z,100.00
2019-03-24T00:48:32.893Z,100.00
2019-03-24T00:51:41.242Z,99.99
2019-03-24T00:54:49.435Z,100.00
2019-03-24T00:57:59.648Z,100.00
2019-03-24T01:01:07.967Z,99.96
2019-03-24T01:04:16.075Z,99.43
2019-03-24T01:07:24.864Z,97.60
2019-03-24T01:10:34.326Z,97.28
2019-03-24T01:13:42.986Z,97.68
2019-03-24T01:16:51.371Z,97.56
2019-03-24T01:19:59.924Z,98.60
2019-03-24T01:23:08.613Z,98.54
2019-03-24T01:29:32.455Z,98.87
2019-03-24T01:32:40.645Z,99.47
2019-03-24T01:35:48.964Z,100.00
2019-03-24T01:38:57.852Z,100.00
2019-03-24T01:42:06.144Z,100.00
2019-03-24T01:45:14.690Z,100.00
2019-03-24T01:48:22.906Z,100.00
2019-03-24T01:51:31.751Z,100.00
2019-03-24T01:54:40.152Z,100.00
2019-03-24T01:57:48.437Z,100.00
2019-03-24T02:00:56.525Z,100.00
2019-03-24T02:04:05.109Z,100.00
2019-03-24T02:07:13.494Z,100.00
2019-03-24T02:10:21.814Z,98.78
2019-03-24T02:13:30.548Z,99.61
2019-03-24T02:16:38.743Z,100.00
2019-03-24T02:19:47.280Z,100.00
2019-03-24T02:22:55.361Z,100.00
2019-03-24T02:26:03.671Z,100.00
2019-03-24T02:29:12.033Z,100.00
2019-03-24T02:32:20.210Z,100.00
2019-03-24T02:35:28.386Z,100.00
2019-03-24T02:38:36.557Z,100.00
2019-03-24T02:41:44.861Z,100.00
2019-03-24T02:44:52.976Z,100.00
2019-03-24T02:48:01.197Z,100.00
2019-03-24T02:51:09.254Z,100.00
2019-03-24T02:54:17.545Z,100.00
2019-03-24T02:57:25.724Z,100.00
2019-03-24T03:00:34.014Z,100.00
2019-03-24T03:03:42.108Z,100.00
2019-03-24T03:06:50.331Z,100.00
2019-03-24T03:09:58.284Z,100.00
2019-03-24T03:13:06.475Z,100.00
2019-03-24T03:16:14.765Z,100.00
2019-03-24T03:19:23.230Z,100.00
2019-03-24T03:22:31.411Z,100.00
2019-03-24T03:25:39.868Z,100.00
2019-03-24T03:28:48.277Z,100.00
2019-03-24T03:31:56.528Z,100.00
2019-03-24T03:35:06.351Z,100.00
2019-03-24T03:38:14.862Z,100.00
2019-03-24T03:41:23.042Z,100.00
2019-03-24T03:44:31.219Z,100.00
2019-03-24T03:47:39.474Z,100.00
2019-03-24T03:50:47.956Z,100.00
2019-03-24T03:53:58.862Z,100.00
2019-03-24T03:57:06.139Z,97.02
2019-03-24T04:00:15.083Z,97.93
2019-03-24T04:03:23.233Z,100.00
2019-03-24T04:06:31.202Z,100.00
2019-03-24T04:09:39.702Z,100.00
2019-03-24T04:12:48.130Z,100.00
2019-03-24T04:15:56.192Z,100.00
2019-03-24T04:19:04.369Z,100.00
2019-03-24T04:22:12.950Z,100.00
2019-03-24T04:25:20.924Z,100.00
2019-03-24T04:28:29.022Z,100.00
2019-03-24T04:31:37.205Z,100.00
2019-03-24T04:34:45.394Z,100.00
2019-03-24T04:37:53.801Z,100.00
2019-03-24T04:41:03.167Z,100.00
2019-03-24T04:44:11.255Z,100.00
2019-03-24T04:47:19.689Z,100.00
2019-03-24T04:50:27.747Z,100.00
2019-03-24T04:53:35.962Z,100.00
2019-03-24T04:56:44.077Z,100.00
2019-03-24T04:59:52.154Z,100.00
2019-03-24T05:03:00.426Z,100.00
2019-03-24T05:06:09.122Z,100.00
2019-03-24T05:09:17.778Z,100.00
2019-03-24T05:12:25.738Z,100.00
2019-03-24T05:15:34.230Z,100.00
2019-03-24T05:18:42.893Z,100.00
2019-03-24T05:21:51.321Z,100.00
2019-03-24T05:25:00.381Z,100.00
2019-03-24T05:28:08.383Z,100.00
2019-03-24T05:31:16.355Z,100.00
2019-03-24T05:34:24.891Z,100.00
2019-03-24T05:37:33.077Z,100.00
2019-03-24T05:40:41.380Z,100.00
2019-03-24T05:43:49.467Z,100.00
2019-03-24T05:46:57.650Z,100.00
2019-03-24T05:50:07.247Z,100.00
2019-03-24T05:53:15.327Z,100.00
2019-03-24T05:56:23.545Z,100.00
2019-03-24T05:59:31.546Z,100.00
2019-03-24T06:02:40.024Z,99.21
2019-03-24T06:05:48.434Z,97.61
2019-03-24T06:08:56.533Z,96.72
2019-03-24T06:12:04.767Z,96.24
2019-03-24T06:15:13.844Z,94.51
2019-03-24T06:18:22.062Z,96.13
2019-03-24T06:21:30.734Z,99.72
2019-03-24T06:24:38.915Z,100.00
2019-03-24T06:27:47.249Z,100.00
2019-03-24T06:30:55.544Z,100.00
2019-03-24T06:34:03.833Z,99.54
2019-03-24T06:37:11.899Z,97.33
2019-03-24T06:40:20.128Z,96.81
2019-03-24T06:43:28.185Z,93.40
2019-03-24T06:46:36.310Z,87.75
2019-03-24T06:49:44.910Z,84.61
2019-03-24T06:52:53.363Z,86.07
2019-03-24T06:56:01.896Z,89.69
2019-03-24T06:59:10.073Z,91.88
2019-03-24T07:02:18.544Z,93.47
2019-03-24T07:05:26.907Z,92.08
2019-03-24T07:08:35.111Z,90.53
2019-03-24T07:11:43.293Z,83.57
2019-03-24T07:14:52.369Z,75.22
2019-03-24T07:18:08.079Z,71.05
2019-03-24T07:21:11.250Z,72.44
2019-03-24T07:24:20.465Z,72.56
2019-03-24T07:27:29.034Z,68.78
2019-03-24T07:30:37.861Z,68.11
2019-03-24T07:33:46.639Z,69.59
2019-03-24T07:36:54.700Z,69.70
2019-03-24T07:40:03.817Z,70.48
2019-03-24T07:43:12.654Z,73.95
2019-03-24T07:46:20.888Z,71.44
2019-03-24T07:49:29.508Z,71.87
2019-03-24T07:52:38.279Z,68.05
2019-03-24T07:55:46.375Z,64.45
2019-03-24T07:58:55.260Z,66.98
2019-03-24T08:02:03.778Z,62.79
2019-03-24T08:05:11.951Z,64.49
2019-03-24T08:08:20.018Z,65.04
2019-03-24T08:11:28.518Z,65.48
2019-03-24T08:14:36.592Z,64.46
2019-03-24T08:17:44.822Z,63.44
2019-03-24T08:20:52.813Z,62.13
2019-03-24T08:24:01.204Z,62.30
2019-03-24T08:27:09.711Z,65.68
2019-03-24T08:30:31.375Z,62.11
2019-03-24T08:33:41.095Z,62.57
2019-03-24T08:36:49.993Z,62.35
2019-03-24T08:39:59.123Z,64.21
2019-03-24T08:43:07.552Z,63.61
2019-03-24T08:46:16.602Z,63.08
2019-03-24T08:49:25.339Z,60.93
2019-03-24T08:52:33.614Z,62.59
2019-03-24T08:55:42.280Z,59.52
2019-03-24T08:58:51.117Z,60.80
2019-03-24T09:01:59.493Z,59.82
2019-03-24T09:05:07.850Z,60.27
2019-03-24T09:08:16.202Z,58.76
2019-03-24T09:11:31.149Z,61.48
2019-03-24T09:14:34.872Z,60.91
2019-03-24T09:17:43.139Z,60.53
2019-03-24T09:20:51.493Z,60.56
2019-03-24T09:23:59.572Z,60.52
2019-03-24T09:27:08.155Z,58.23
2019-03-24T09:30:30.712Z,57.86
2019-03-24T09:33:38.782Z,60.91
2019-03-24T09:36:46.889Z,58.87
2019-03-24T09:39:55.155Z,57.62
2019-03-24T09:43:04.173Z,58.66
2019-03-24T09:46:12.443Z,58.15
2019-03-24T09:49:20.671Z,56.59
2019-03-24T09:52:28.853Z,57.34
2019-03-24T09:55:37.438Z,56.70
2019-03-24T09:58:46.984Z,56.00
2019-03-24T10:01:55.444Z,55.70
2019-03-24T10:05:05.141Z,58.27
2019-03-24T10:08:13.431Z,57.41
2019-03-24T10:11:21.523Z,55.70
2019-03-24T10:14:30.026Z,55.50
2019-03-24T10:17:39.815Z,57.31
2019-03-24T10:20:48.951Z,54.83
2019-03-24T10:23:58.130Z,52.64
2019-03-24T10:27:06.957Z,55.05
2019-03-24T10:30:16.570Z,53.78
2019-03-24T10:33:25.698Z,54.70
2019-03-24T10:36:34.072Z,55.57
2019-03-24T10:39:42.482Z,55.22
2019-03-24T10:42:50.949Z,51.51
2019-03-24T10:45:59.976Z,52.20
2019-03-24T10:49:09.499Z,51.38
2019-03-24T10:52:18.543Z,52.14
2019-03-24T10:55:27.986Z,50.09
2019-03-24T10:58:36.716Z,51.41
2019-03-24T11:01:46.424Z,51.73
2019-03-24T11:04:55.240Z,52.02
2019-03-24T11:08:03.756Z,50.99
2019-03-24T11:11:12.257Z,52.02
2019-03-24T11:14:21.470Z,49.80
2019-03-24T11:17:29.824Z,49.59
2019-03-24T11:20:38.609Z,48.31
2019-03-24T11:23:46.900Z,48.47
2019-03-24T11:26:55.129Z,47.20
2019-03-24T11:30:04.482Z,51.96
2019-03-24T11:33:13.774Z,49.51
2019-03-24T11:36:22.146Z,47.50
2019-03-24T11:39:30.653Z,48.61
2019-03-24T11:42:39.034Z,47.51
2019-03-24T11:45:47.433Z,48.10
2019-03-24T11:48:56.423Z,47.57
2019-03-24T11:52:05.095Z,48.62
2019-03-24T11:55:13.790Z,46.45
2019-03-24T11:58:22.130Z,46.49
2019-03-24T12:01:38.175Z,46.81
2019-03-24T12:04:41.922Z,47.53
2019-03-24T12:07:50.462Z,45.31
2019-03-24T12:10:59.815Z,46.54
2019-03-24T12:14:08.508Z,45.18
2019-03-24T12:17:17.140Z,45.76
2019-03-24T12:20:26.621Z,44.43
2019-03-24T12:23:35.458Z,45.80
2019-03-24T12:26:43.601Z,44.13
2019-03-24T12:29:51.974Z,45.92
2019-03-24T12:33:00.476Z,44.82
2019-03-24T12:36:08.719Z,46.21
2019-03-24T12:39:17.308Z,46.67
2019-03-24T12:42:25.880Z,46.22
2019-03-24T12:45:34.858Z,46.03
2019-03-24T12:48:43.215Z,45.38
2019-03-24T12:51:52.541Z,47.72
2019-03-24T12:55:00.744Z,45.37
2019-03-24T12:58:08.999Z,45.88
2019-03-24T13:01:17.409Z,46.07
2019-03-24T13:04:25.942Z,46.04
2019-03-24T13:07:34.595Z,47.48
2019-03-24T13:10:43.989Z,47.31
2019-03-24T13:13:52.210Z,47.27
2019-03-24T13:17:01.001Z,48.28
2019-03-24T13:20:20.071Z,46.89
2019-03-24T13:23:19.376Z,46.61
2019-03-24T13:26:28.167Z,50.01
2019-03-24T13:29:36.683Z,48.18
2019-03-24T13:32:44.738Z,50.18
2019-03-24T13:36:04.971Z,49.80
2019-03-24T13:39:13.517Z,48.34
2019-03-24T13:42:22.806Z,47.00
2019-03-24T13:45:31.280Z,47.83
2019-03-24T13:48:39.591Z,47.16
2019-03-24T13:51:48.637Z,49.55
2019-03-24T13:54:57.133Z,47.80
2019-03-24T13:58:05.438Z,48.41
2019-03-24T14:01:33.968Z,47.72
2019-03-24T14:04:47.944Z,47.10
2019-03-24T14:07:56.360Z,50.52
2019-03-24T14:11:04.712Z,49.17
2019-03-24T14:14:13.288Z,47.00
2019-03-24T14:17:22.162Z,46.78
2019-03-24T14:20:34.463Z,48.27
2019-03-24T14:23:40.751Z,49.05
2019-03-24T14:26:49.438Z,49.74
2019-03-24T14:29:57.888Z,50.66
2019-03-24T14:33:06.271Z,49.50
2019-03-24T14:36:14.959Z,48.70
2019-03-24T14:39:23.363Z,50.51
2019-03-24T14:42:31.757Z,48.98
2019-03-24T14:45:40.606Z,47.56
2019-03-24T14:48:48.923Z,48.71
2019-03-24T14:51:57.257Z,49.58
2019-03-24T14:55:06.281Z,48.88
2019-03-24T14:58:14.747Z,50.39
2019-03-24T15:01:23.600Z,48.53
2019-03-24T15:04:31.921Z,48.48
2019-03-24T15:07:40.543Z,49.31
2019-03-24T15:10:49.205Z,48.40
2019-03-24T15:13:57.590Z,48.28
2019-03-24T15:17:06.294Z,49.29
2019-03-24T15:20:14.832Z,48.72
2019-03-24T15:23:23.330Z,48.64
2019-03-24T15:26:31.479Z,48.24
2019-03-24T15:29:40.015Z,48.72
2019-03-24T15:32:48.454Z,49.79
2019-03-24T15:35:56.999Z,49.50
2019-03-24T15:39:08.320Z,51.73
2019-03-24T15:42:16.736Z,49.81
2019-03-24T15:45:25.021Z,49.62
2019-03-24T15:48:33.467Z,51.45
2019-03-24T15:51:41.545Z,49.58
2019-03-24T15:54:49.796Z,51.72
2019-03-24T15:57:58.093Z,50.94
2019-03-24T16:01:06.534Z,50.48
2019-03-24T16:04:14.613Z,51.72
2019-03-24T16:07:22.597Z,51.50
2019-03-24T16:10:35.372Z,52.22
2019-03-24T16:13:41.540Z,52.21
2019-03-24T16:16:50.020Z,51.96
2019-03-24T16:19:58.447Z,51.45
2019-03-24T16:23:06.761Z,52.21
2019-03-24T16:26:16.118Z,52.26
2019-03-24T16:29:24.338Z,52.21
2019-03-24T16:32:32.527Z,53.65
2019-03-24T16:35:41.107Z,52.65
2019-03-24T16:38:49.431Z,52.48
2019-03-24T16:41:58.076Z,52.75
2019-03-24T16:45:07.067Z,53.13
2019-03-24T16:48:15.328Z,53.48
2019-03-24T16:51:23.727Z,54.13
2019-03-24T16:54:32.426Z,55.41
2019-03-24T16:57:41.032Z,55.20
2019-03-24T17:00:49.235Z,55.94
2019-03-24T17:03:57.553Z,55.82
2019-03-24T17:07:05.853Z,55.78
2019-03-24T17:10:14.257Z,55.06
2019-03-24T17:13:22.482Z,55.24
2019-03-24T17:16:30.679Z,55.18
2019-03-24T17:19:38.802Z,55.25
2019-03-24T17:22:47.089Z,55.19
2019-03-24T17:25:55.444Z,55.03
2019-03-24T17:29:03.742Z,56.25
2019-03-24T17:32:12.226Z,59.03
2019-03-24T17:35:20.878Z,60.19
2019-03-24T17:38:29.557Z,60.36
2019-03-24T17:41:37.926Z,61.09
2019-03-24T17:44:46.279Z,61.87
2019-03-24T17:47:55.668Z,61.93
2019-03-24T17:51:04.030Z,62.21
2019-03-24T17:54:12.616Z,63.00
2019-03-24T17:57:21.008Z,63.80
2019-03-24T18:00:38.298Z,64.17
2019-03-24T18:03:46.740Z,64.82
2019-03-24T18:06:56.069Z,65.59
2019-03-24T18:10:05.497Z,65.84
2019-03-24T18:13:14.220Z,66.00
2019-03-24T18:16:22.403Z,64.78
2019-03-24T18:19:31.167Z,65.08
2019-03-24T18:22:39.491Z,66.58
2019-03-24T18:25:47.865Z,67.55
2019-03-24T18:28:56.144Z,68.44
2019-03-24T18:32:04.686Z,69.77
2019-03-24T18:35:13.732Z,69.93
2019-03-24T18:38:22.028Z,70.92
2019-03-24T18:41:30.383Z,71.68
2019-03-24T18:44:39.404Z,72.69
2019-03-24T18:47:48.107Z,73.35
2019-03-24T18:50:56.402Z,74.93
2019-03-24T18:54:05.249Z,76.01
2019-03-24T18:57:13.721Z,76.30
2019-03-24T19:00:22.505Z,77.12
2019-03-24T19:03:31.248Z,77.34
2019-03-24T19:06:39.533Z,78.82
2019-03-24T19:09:48.163Z,81.02
2019-03-24T19:12:56.590Z,80.88
2019-03-24T19:16:05.204Z,81.79
2019-03-24T19:19:13.718Z,82.30
2019-03-24T19:22:33.097Z,82.64
2019-03-24T19:28:41.187Z,83.04
2019-03-24T19:31:49.548Z,83.51
2019-03-24T19:34:58.249Z,84.22
2019-03-24T19:38:06.708Z,84.52
2019-03-24T19:41:15.613Z,80.42
2019-03-24T19:44:24.516Z,79.08
2019-03-24T19:47:33.524Z,77.45
2019-03-24T19:50:41.767Z,76.74
2019-03-24T19:53:50.054Z,76.26
2019-03-24T19:56:58.392Z,75.88
2019-03-24T20:00:07.762Z,76.29
2019-03-24T20:03:16.292Z,76.18
2019-03-24T20:06:25.882Z,76.48
2019-03-24T20:09:34.075Z,77.08
2019-03-24T20:12:42.896Z,77.04
2019-03-24T20:15:51.011Z,77.04
2019-03-24T20:18:59.228Z,76.67
2019-03-24T20:22:07.696Z,75.91
2019-03-24T20:25:17.159Z,76.30
2019-03-24T20:28:26.103Z,75.74
2019-03-24T20:31:34.842Z,76.41
2019-03-24T20:34:43.082Z,76.36
2019-03-24T20:37:51.463Z,76.66
2019-03-24T20:41:00.107Z,76.93
2019-03-24T20:44:11.183Z,77.53
2019-03-24T20:47:18.739Z,77.88
2019-03-24T20:50:27.234Z,77.45
2019-03-24T20:53:35.566Z,78.40
2019-03-24T20:56:43.982Z,79.22
2019-03-24T20:59:52.582Z,79.79
2019-03-24T21:03:01.489Z,80.21
2019-03-24T21:06:10.268Z,80.52
2019-03-24T21:09:19.571Z,81.00
2019-03-24T21:12:27.885Z,81.31
2019-03-24T21:15:36.597Z,82.04
2019-03-24T21:18:45.103Z,82.06
2019-03-24T21:21:53.517Z,81.79
2019-03-24T21:25:02.784Z,81.65
2019-03-24T21:28:11.709Z,81.85
2019-03-24T21:31:20.409Z,81.17
2019-03-24T21:34:28.999Z,81.21
2019-03-24T21:37:37.344Z,81.25
2019-03-24T21:40:45.549Z,82.07
2019-03-24T21:43:54.025Z,83.08
2019-03-24T21:47:02.219Z,83.80
2019-03-24T21:50:11.741Z,83.65
2019-03-24T21:53:19.994Z,84.14
2019-03-24T21:56:28.150Z,84.61
2019-03-24T21:59:36.365Z,84.86
2019-03-24T22:02:44.577Z,85.29
2019-03-24T22:05:52.941Z,86.35
2019-03-24T22:09:01.374Z,86.42
2019-03-24T22:12:09.840Z,86.20
2019-03-24T22:15:18.363Z,86.51
2019-03-24T22:18:27.398Z,86.07
2019-03-24T22:21:35.993Z,85.73
2019-03-24T22:24:44.702Z,85.53
2019-03-24T22:27:53.192Z,85.90
2019-03-24T22:31:02.295Z,86.70
2019-03-24T22:34:11.470Z,86.57
2019-03-24T22:37:20.682Z,87.18
2019-03-24T22:40:28.781Z,87.96
2019-03-24T22:43:37.338Z,88.02
2019-03-24T22:46:45.742Z,88.61
2019-03-24T22:50:15.985Z,89.21
2019-03-24T22:53:24.390Z,89.93
2019-03-24T22:56:32.865Z,89.56
2019-03-24T22:59:41.399Z,89.11
2019-03-24T23:02:49.725Z,88.81
2019-03-24T23:05:58.405Z,87.96
2019-03-24T23:09:08.317Z,88.07
2019-03-24T23:12:16.617Z,88.54
2019-03-24T23:15:24.992Z,88.13
2019-03-24T23:18:33.458Z,87.83
2019-03-24T23:21:41.660Z,87.21
2019-03-24T23:24:49.658Z,86.91
2019-03-24T23:27:58.436Z,87.90
2019-03-24T23:31:06.832Z,88.48
2019-03-24T23:34:15.634Z,88.56
2019-03-24T23:37:23.911Z,88.03
2019-03-24T23:40:32.572Z,87.41
2019-03-24T23:43:40.987Z,87.28
2019-03-24T23:46:49.612Z,88.09
2019-03-24T23:49:57.597Z,87.81
2019-03-24T23:53:05.882Z,88.06
2019-03-24T23:56:14.100Z,88.15
2019-03-24T23:59:22.290Z,88.27
